Time;durP1;ratioP1;P1;durP2;ratioP2;P2;SDS_P1;SDS_P2;PMS_P1;PMS_P2;Temp;Humidity;BMP_temperature;BMP_pressure;BME280_temperature;BME280_humidity;BME280_pressure;Samples;Min_cycle;Max_cycle;Signal;HPM_P1;HPM_P2
2022/07/11 11:59:26;;;;;;;4.13;1.85;;;26.70;64.10;;;;;;5070517;28;20379;-47
2022/07/11 12:01:53;;;;;;;3.65;1.80;;;26.40;65.90;;;;;;5058111;28;20033;-46
2022/07/11 12:04:20;;;;;;;6.40;2.35;;;26.60;64.20;;;;;;5050424;28;20488;-46
2022/07/11 12:06:49;;;;;;;8.05;2.42;;;26.70;64.60;;;;;;5050354;28;20037;-48
2022/07/11 12:09:16;;;;;;;5.03;1.70;;;26.90;63.90;;;;;;5051962;28;20385;-47
2022/07/11 12:11:43;;;;;;;3.95;1.63;;;27.00;63.50;;;;;;5050471;28;20044;-49
2022/07/11 12:14:09;;;;;;;3.28;1.70;;;27.20;63.50;;;;;;5053997;28;20060;-51
2022/07/11 12:16:39;;;;;;;4.47;1.85;;;27.40;62.80;;;;;;5050003;28;20042;-49
2022/07/11 12:19:08;;;;;;;4.88;1.85;;;27.50;63.10;;;;;;5049442;28;20112;-52
2022/07/11 12:21:35;;;;;;;4.00;1.42;;;27.70;62.80;;;;;;5050181;28;20041;-52
2022/07/11 12:24:02;;;;;;;4.07;1.33;;;27.80;62.00;;;;;;5050098;28;20041;-48
2022/07/11 12:26:32;;;;;;;4.40;1.48;;;27.70;61.50;;;;;;5053656;28;20041;-49
2022/07/11 12:28:58;;;;;;;3.13;1.40;;;27.80;61.00;;;;;;5049975;28;20064;-47
2022/07/11 12:31:25;;;;;;;4.10;1.30;;;27.80;60.20;;;;;;5050168;28;20053;-49
2022/07/11 12:33:52;;;;;;;4.68;1.45;;;27.80;60.90;;;;;;5048797;28;20049;-52
2022/07/11 12:36:19;;;;;;;4.18;1.30;;;27.80;60.50;;;;;;5049898;28;20128;-47
2022/07/11 12:38:45;;;;;;;4.55;1.50;;;27.90;60.90;;;;;;5049839;28;20045;-51
2022/07/11 12:41:12;;;;;;;3.08;1.60;;;28.00;61.50;;;;;;5049739;28;20484;-49
2022/07/11 12:46:25;;;;;;;4.97;1.50;;;28.30;61.20;;;;;;5049629;28;20045;-45
2022/07/11 12:48:51;;;;;;;2.55;1.40;;;28.40;59.90;;;;;;5049583;28;20371;-48
2022/07/11 12:51:18;;;;;;;4.80;1.52;;;28.40;60.30;;;;;;5043342;28;20091;-50
2022/07/11 12:53:45;;;;;;;3.05;1.17;;;28.50;60.00;;;;;;5048102;28;20451;-50
2022/07/11 12:56:11;;;;;;;2.95;1.40;;;28.70;60.20;;;;;;5049440;28;20411;-49
2022/07/11 12:58:39;;;;;;;4.10;1.50;;;28.80;59.70;;;;;;5049061;28;20049;-49
2022/07/11 13:01:05;;;;;;;4.28;1.80;;;28.90;59.40;;;;;;5054356;28;20037;-48
2022/07/11 13:03:32;;;;;;;5.65;1.83;;;29.00;59.40;;;;;;5049423;28;20045;-51
2022/07/11 13:05:59;;;;;;;6.70;1.83;;;29.10;59.40;;;;;;5053980;28;20421;-51
2022/07/11 13:11:11;;;;;;;3.45;2.03;;;29.10;58.70;;;;;;5035716;28;20052;-53
2022/07/11 13:13:38;;;;;;;3.72;1.30;;;29.10;59.20;;;;;;5039833;28;20072;-49
2022/07/11 13:16:05;;;;;;;4.88;1.83;;;29.20;59.10;;;;;;5035816;28;20542;-53
2022/07/11 13:18:32;;;;;;;6.47;1.98;;;29.30;58.60;;;;;;5037818;28;20038;-52
2022/07/11 13:20:59;;;;;;;6.07;1.50;;;29.40;59.40;;;;;;5035749;28;20124;-51
2022/07/11 13:23:26;;;;;;;4.50;1.45;;;29.50;58.40;;;;;;5035922;28;20038;-51
2022/07/11 13:25:53;;;;;;;3.22;1.52;;;29.60;58.50;;;;;;5035624;28;20081;-53
2022/07/11 13:28:19;;;;;;;4.47;1.58;;;29.70;58.80;;;;;;5035648;28;20054;-51
2022/07/11 13:30:47;;;;;;;2.80;1.27;;;29.80;57.50;;;;;;5034176;28;20040;-51
2022/07/11 13:33:34;;;;;;;2.92;1.58;;;29.80;57.60;;;;;;5031614;28;20052;-46
2022/07/11 13:36:00;;;;;;;3.55;1.45;;;29.80;57.50;;;;;;5035413;28;20103;-50
2022/07/11 13:38:27;;;;;;;1.95;1.33;;;29.80;57.40;;;;;;5037856;28;20041;-54
2022/07/11 13:40:54;;;;;;;4.47;1.50;;;29.70;57.10;;;;;;5035214;28;20038;-50
2022/07/11 13:43:21;;;;;;;3.85;1.45;;;29.70;58.10;;;;;;5039212;28;20045;-49
2022/07/11 13:45:48;;;;;;;3.80;1.40;;;29.70;58.00;;;;;;5035575;28;20046;-51
2022/07/11 13:48:15;;;;;;;3.33;1.50;;;29.90;57.90;;;;;;5034665;28;20120;-51
2022/07/11 13:50:42;;;;;;;2.78;1.30;;;29.90;57.70;;;;;;5035092;28;20102;-50
2022/07/11 13:53:09;;;;;;;4.32;1.20;;;29.90;57.00;;;;;;5035293;28;20037;-48
2022/07/11 13:55:35;;;;;;;4.60;1.60;;;29.80;57.40;;;;;;5035176;28;20042;-54
2022/07/11 13:58:02;;;;;;;8.32;1.50;;;29.70;57.10;;;;;;5034932;28;20141;-47
2022/07/11 14:00:29;;;;;;;2.75;1.42;;;29.70;58.30;;;;;;5036941;28;20504;-46
2022/07/11 14:02:56;;;;;;;3.33;1.10;;;29.70;57.90;;;;;;5034839;28;20449;-49
2022/07/11 14:05:24;;;;;;;3.22;1.88;;;29.80;57.80;;;;;;5034895;28;20068;-50
2022/07/11 14:07:52;;;;;;;4.28;1.33;;;29.80;58.50;;;;;;5034980;28;20052;-49
2022/07/11 14:10:19;;;;;;;3.28;1.30;;;29.90;58.00;;;;;;5039057;28;20504;-48
2022/07/11 14:12:52;;;;;;;4.53;1.67;;;30.00;57.70;;;;;;5035033;28;20076;-49
2022/07/11 14:15:19;;;;;;;3.67;1.60;;;30.00;57.70;;;;;;5033353;28;20094;-48
2022/07/11 14:17:46;;;;;;;2.92;1.40;;;30.10;57.10;;;;;;5034639;28;20432;-52
2022/07/11 14:20:13;;;;;;;3.30;1.58;;;30.10;57.50;;;;;;5034426;28;20065;-49
2022/07/11 14:22:40;;;;;;;4.00;1.20;;;30.30;57.50;;;;;;5033766;28;20042;-46
2022/07/11 14:25:08;;;;;;;4.18;1.52;;;30.40;57.10;;;;;;5033544;28;20092;-50
2022/07/11 14:27:36;;;;;;;4.28;1.40;;;30.40;56.80;;;;;;5034398;28;20056;-49
2022/07/11 14:30:03;;;;;;;3.55;1.33;;;30.50;56.90;;;;;;5034533;28;20397;-50
2022/07/11 14:32:30;;;;;;;4.25;1.23;;;30.60;57.10;;;;;;5034444;28;20041;-48
2022/07/11 14:34:56;;;;;;;3.65;1.45;;;30.60;56.90;;;;;;5033448;28;20049;-52
2022/07/11 14:37:23;;;;;;;3.28;1.10;;;30.70;56.30;;;;;;5034464;28;20046;-49
2022/07/11 14:39:50;;;;;;;5.40;1.38;;;30.70;56.40;;;;;;5034968;28;20053;-48
2022/07/11 14:42:16;;;;;;;2.13;1.10;;;30.80;56.30;;;;;;5034038;28;20404;-48
2022/07/11 14:45:03;;;;;;;6.53;1.30;;;30.90;55.80;;;;;;5034510;28;20045;-49
2022/07/11 14:47:30;;;;;;;2.63;1.20;;;30.80;55.70;;;;;;5033944;28;20099;-50
2022/07/11 14:49:57;;;;;;;3.15;1.30;;;30.70;56.00;;;;;;5036387;28;20041;-48
2022/07/11 14:52:24;;;;;;;2.42;1.40;;;30.70;55.80;;;;;;5034320;28;20061;-51
2022/07/11 14:54:50;;;;;;;3.92;1.50;;;30.80;56.40;;;;;;5033580;28;20075;-49
2022/07/11 14:57:17;;;;;;;4.60;1.67;;;30.90;55.80;;;;;;5038383;28;20095;-47
2022/07/11 14:59:44;;;;;;;3.65;1.40;;;30.80;56.00;;;;;;5033978;28;20087;-46
2022/07/11 15:02:10;;;;;;;3.03;1.10;;;30.80;55.30;;;;;;5037871;28;20088;-52
2022/07/11 15:04:37;;;;;;;1.88;1.10;;;30.70;55.50;;;;;;5033648;28;20056;-52
2022/07/11 15:12:43;;;;;;;2.72;1.00;;;30.50;55.50;;;;;;5033481;28;20046;-49
2022/07/11 15:15:09;;;;;;;2.60;1.30;;;30.40;55.90;;;;;;5033442;28;20055;-47
2022/07/11 15:17:36;;;;;;;4.20;1.23;;;30.40;56.00;;;;;;5027305;28;20057;-52
2022/07/11 15:20:03;;;;;;;2.88;1.33;;;30.50;55.90;;;;;;5033620;28;20056;-50
2022/07/11 15:22:29;;;;;;;3.67;1.30;;;30.30;55.30;;;;;;5033552;28;20053;-47
2022/07/11 15:24:56;;;;;;;4.57;1.45;;;30.30;56.50;;;;;;5033575;28;20041;-50
2022/07/11 15:27:23;;;;;;;2.00;1.10;;;30.50;56.40;;;;;;5033372;28;20046;-55
2022/07/11 15:29:50;;;;;;;2.47;1.20;;;30.70;56.60;;;;;;5031960;28;20489;-48
2022/07/11 15:32:16;;;;;;;2.72;1.10;;;30.90;56.30;;;;;;5033227;28;20045;-50
2022/07/11 15:34:43;;;;;;;2.00;1.13;;;31.00;55.30;;;;;;5033415;28;20033;-50
2022/07/11 15:37:13;;;;;;;4.20;1.38;;;31.20;55.90;;;;;;5033213;28;20041;-52
2022/07/11 15:39:40;;;;;;;3.38;1.20;;;31.40;55.30;;;;;;5033422;28;20558;-49
2022/07/11 15:42:07;;;;;;;3.35;1.50;;;31.50;55.20;;;;;;5033340;28;20042;-52
2022/07/11 15:44:33;;;;;;;2.20;1.00;;;31.70;55.00;;;;;;5038148;28;20404;-52
2022/07/11 15:47:00;;;;;;;3.50;1.17;;;31.70;54.40;;;;;;5033200;28;20404;-49
2022/07/11 15:49:27;;;;;;;2.58;1.10;;;31.60;54.00;;;;;;5031426;28;20447;-48
2022/07/11 15:51:53;;;;;;;2.28;1.00;;;31.50;54.30;;;;;;5033492;28;20048;-50
2022/07/11 15:54:21;;;;;;;3.97;1.10;;;31.50;54.80;;;;;;5033889;28;20488;-49
2022/07/11 15:56:47;;;;;;;2.42;1.15;;;31.60;54.70;;;;;;5033148;28;20038;-49
2022/07/11 15:59:15;;;;;;;2.10;1.00;;;32.00;54.90;;;;;;5031448;28;20559;-48
2022/07/11 16:01:42;;;;;;;5.03;1.08;;;32.30;54.60;;;;;;5032646;28;20037;-47
2022/07/11 16:04:09;;;;;;;4.82;1.10;;;32.70;54.40;;;;;;5033127;28;20091;-51
2022/07/11 16:06:36;;;;;;;3.58;0.90;;;32.90;53.70;;;;;;5034888;28;20046;-45
2022/07/11 16:09:03;;;;;;;4.07;1.15;;;33.00;53.50;;;;;;5033959;28;20381;-48
2022/07/11 16:11:29;;;;;;;3.00;1.10;;;33.20;53.70;;;;;;5032920;28;20052;-50
2022/07/11 16:13:56;;;;;;;2.25;1.02;;;33.60;52.90;;;;;;5033951;28;20042;-50
2022/07/11 16:16:23;;;;;;;2.58;0.90;;;34.00;52.60;;;;;;5032931;28;20064;-48
2022/07/11 16:18:51;;;;;;;2.10;1.00;;;34.30;51.90;;;;;;5032880;28;20072;-48
2022/07/11 16:21:17;;;;;;;3.63;0.90;;;34.50;51.40;;;;;;5032845;28;20447;-45
2022/07/11 16:23:44;;;;;;;2.17;1.10;;;34.70;50.90;;;;;;5032871;28;20107;-48
2022/07/11 16:26:11;;;;;;;2.78;1.05;;;34.80;50.80;;;;;;5032501;28;20046;-47
2022/07/11 16:28:38;;;;;;;2.97;1.23;;;34.80;50.50;;;;;;5032810;28;20097;-47
2022/07/11 16:31:04;;;;;;;2.83;1.00;;;34.90;50.80;;;;;;5033589;28;20037;-49
2022/07/11 16:33:31;;;;;;;2.90;1.00;;;35.00;50.60;;;;;;5032919;28;20041;-48
2022/07/11 16:36:05;;;;;;;5.22;1.00;;;35.10;49.90;;;;;;5032799;28;20038;-48
2022/07/11 16:38:32;;;;;;;2.78;1.17;;;35.50;50.40;;;;;;5033635;28;20096;-49
2022/07/11 16:43:44;;;;;;;3.63;0.82;;;36.10;49.30;;;;;;5035209;28;20112;-45
2022/07/11 16:46:11;;;;;;;2.72;0.90;;;36.30;48.50;;;;;;5037730;28;20046;-47
2022/07/11 16:48:40;;;;;;;2.35;0.85;;;35.90;48.70;;;;;;5036323;28;20037;-51
2022/07/11 16:51:07;;;;;;;3.42;1.02;;;35.80;48.90;;;;;;5035853;28;20045;-49
2022/07/11 16:53:35;;;;;;;2.20;0.82;;;35.90;49.00;;;;;;5036241;28;20488;-50
2022/07/11 16:56:02;;;;;;;2.95;0.82;;;35.70;48.20;;;;;;5036442;28;20476;-53
2022/07/11 16:58:28;;;;;;;2.83;0.90;;;35.60;48.80;;;;;;5035933;28;20129;-45
2022/07/11 17:00:55;;;;;;;5.38;0.93;;;35.50;49.10;;;;;;5040165;28;20068;-48
2022/07/11 17:03:22;;;;;;;1.65;0.80;;;35.40;49.10;;;;;;5036124;28;20034;-48
2022/07/11 17:05:49;;;;;;;2.55;0.90;;;35.30;49.20;;;;;;5035952;28;20037;-50
2022/07/11 17:11:01;;;;;;;3.63;1.00;;;34.90;49.60;;;;;;5041923;28;20049;-50
2022/07/11 17:13:28;;;;;;;4.88;1.08;;;34.70;49.90;;;;;;5035905;28;20079;-48
2022/07/11 17:15:55;;;;;;;2.83;1.10;;;34.30;49.90;;;;;;5035961;28;20057;-50
2022/07/11 17:18:22;;;;;;;1.70;0.80;;;34.10;50.40;;;;;;5039893;28;20050;-49
2022/07/11 17:20:49;;;;;;;5.43;1.33;;;33.80;50.50;;;;;;5035787;28;20111;-45
2022/07/11 17:23:16;;;;;;;5.85;1.30;;;33.40;52.70;;;;;;5035764;28;20049;-51
2022/07/11 17:25:42;;;;;;;4.43;1.25;;;33.10;52.60;;;;;;5035873;28;20393;-47
2022/07/11 17:28:09;;;;;;;5.20;1.25;;;33.20;53.70;;;;;;5035468;28;20135;-48
2022/07/11 17:30:37;;;;;;;5.10;1.30;;;32.90;54.10;;;;;;5038373;28;20107;-47
2022/07/11 17:33:03;;;;;;;3.53;1.02;;;32.70;54.80;;;;;;5035507;28;20068;-52
2022/07/11 17:35:30;;;;;;;8.90;1.25;;;32.80;54.40;;;;;;5035747;28;20045;-50
2022/07/11 17:37:57;;;;;;;4.53;1.25;;;32.70;54.20;;;;;;5035530;28;20041;-50
2022/07/11 17:40:25;;;;;;;6.68;1.10;;;32.70;54.30;;;;;;5035614;28;20447;-52
2022/07/11 17:42:52;;;;;;;2.10;0.90;;;32.60;54.50;;;;;;5035558;28;20103;-52
2022/07/11 17:45:19;;;;;;;3.28;1.08;;;32.40;54.90;;;;;;5034128;28;20046;-50
2022/07/11 17:47:46;;;;;;;5.30;1.10;;;32.50;54.70;;;;;;5035316;28;20042;-51
2022/07/11 17:50:13;;;;;;;4.60;1.10;;;32.50;54.40;;;;;;5034939;28;20140;-48
2022/07/11 17:52:40;;;;;;;3.83;1.10;;;32.50;54.70;;;;;;5035222;28;20443;-44
2022/07/11 17:55:07;;;;;;;3.33;1.52;;;32.50;54.80;;;;;;5035488;28;20039;-48
2022/07/11 17:57:34;;;;;;;3.00;1.40;;;32.50;54.80;;;;;;5034861;28;20102;-52
2022/07/11 18:00:01;;;;;;;5.00;1.20;;;32.50;54.80;;;;;;5035815;28;20040;-52
2022/07/11 18:02:29;;;;;;;5.25;1.30;;;32.50;54.80;;;;;;5037732;28;20539;-49
2022/07/11 18:04:56;;;;;;;8.32;1.60;;;32.30;54.80;;;;;;5034926;28;20045;-50
2022/07/11 18:07:23;;;;;;;5.68;1.30;;;32.10;55.20;;;;;;5040367;28;20052;-47
2022/07/11 18:09:50;;;;;;;5.68;1.35;;;31.80;55.50;;;;;;5034859;28;20440;-49
2022/07/11 18:12:18;;;;;;;4.63;1.33;;;31.40;55.90;;;;;;5034937;28;20076;-48
2022/07/11 18:14:44;;;;;;;3.30;1.10;;;31.20;56.30;;;;;;5034168;28;20124;-51
2022/07/11 18:17:13;;;;;;;3.05;1.20;;;30.90;56.70;;;;;;5034408;28;20783;-51
2022/07/11 18:19:40;;;;;;;2.10;1.63;;;30.60;57.20;;;;;;5033098;28;20524;-48
2022/07/11 18:22:06;;;;;;;4.95;1.58;;;30.40;57.40;;;;;;5034779;28;20097;-51
2022/07/11 18:24:36;;;;;;;11.13;1.63;;;30.30;57.60;;;;;;5034709;28;20049;-48
2022/07/11 18:27:03;;;;;;;5.35;1.27;;;30.20;58.00;;;;;;5034664;28;20500;-49
2022/07/11 18:29:29;;;;;;;5.00;1.33;;;30.10;58.10;;;;;;5034427;28;20048;-51
2022/07/11 18:31:56;;;;;;;5.88;1.30;;;29.90;58.60;;;;;;5039050;28;20073;-50
2022/07/11 18:34:23;;;;;;;3.70;1.10;;;29.80;58.60;;;;;;5034729;28;20124;-49
2022/07/11 18:36:49;;;;;;;3.55;1.45;;;29.60;58.90;;;;;;5034501;28;20049;-50
2022/07/11 18:42:01;;;;;;;2.60;1.17;;;29.40;59.10;;;;;;5034288;28;20041;-50
2022/07/11 18:44:28;;;;;;;4.60;1.35;;;29.30;59.70;;;;;;5036864;28;20049;-51
2022/07/11 18:46:55;;;;;;;3.65;1.30;;;29.30;59.60;;;;;;5034472;28;20049;-50
2022/07/11 18:49:22;;;;;;;2.83;1.10;;;29.20;59.80;;;;;;5033972;28;20038;-52
2022/07/11 18:51:49;;;;;;;4.10;1.08;;;29.10;60.10;;;;;;5034264;28;20465;-47
2022/07/11 18:54:16;;;;;;;3.92;1.30;;;29.00;60.20;;;;;;5034142;28;20492;-49
2022/07/11 18:56:43;;;;;;;2.53;1.13;;;29.00;60.50;;;;;;5034194;28;20096;-50
2022/07/11 18:59:09;;;;;;;4.43;1.10;;;29.00;60.20;;;;;;5034809;28;20049;-51
2022/07/11 19:01:36;;;;;;;2.42;1.00;;;29.00;60.70;;;;;;5036619;28;20045;-50
2022/07/11 19:04:03;;;;;;;5.25;1.27;;;29.00;60.60;;;;;;5034211;28;20049;-47
2022/07/11 19:06:30;;;;;;;5.38;1.42;;;29.00;60.70;;;;;;5033912;28;20057;-48
2022/07/11 19:08:57;;;;;;;3.35;1.00;;;28.90;60.60;;;;;;5033340;28;20459;-51
2022/07/11 19:11:23;;;;;;;3.80;1.10;;;28.80;60.60;;;;;;5034163;28;20071;-49
2022/07/11 19:13:50;;;;;;;2.95;1.10;;;28.60;60.70;;;;;;5033577;28;20049;-50
2022/07/11 19:16:17;;;;;;;3.33;1.10;;;28.50;60.90;;;;;;5039390;28;20049;-51
2022/07/11 19:18:44;;;;;;;4.68;1.17;;;28.40;60.80;;;;;;5033651;28;20101;-49
2022/07/11 19:21:11;;;;;;;3.28;1.20;;;28.30;60.90;;;;;;5038503;28;20107;-49
2022/07/11 19:23:37;;;;;;;2.28;1.10;;;28.30;60.90;;;;;;5033543;28;20072;-53
2022/07/11 19:26:04;;;;;;;5.93;1.23;;;28.20;60.70;;;;;;5035421;28;20037;-53
2022/07/11 19:28:32;;;;;;;3.75;1.00;;;28.20;60.90;;;;;;5032286;28;20088;-50
2022/07/11 19:30:59;;;;;;;3.60;1.00;;;28.10;60.30;;;;;;5033365;28;20048;-51
2022/07/11 19:33:26;;;;;;;6.25;1.10;;;28.00;60.70;;;;;;5038649;28;20042;-50
2022/07/11 19:35:52;;;;;;;4.45;1.10;;;27.90;60.90;;;;;;5033589;28;20550;-55
2022/07/11 19:38:19;;;;;;;2.58;1.10;;;27.70;60.80;;;;;;5039768;28;20037;-53
2022/07/11 19:40:46;;;;;;;4.38;1.30;;;27.60;61.30;;;;;;5033741;28;20049;-52
2022/07/11 19:43:13;;;;;;;2.75;1.00;;;27.60;61.30;;;;;;5033826;28;20037;-50
2022/07/11 19:45:40;;;;;;;3.88;1.05;;;27.50;61.50;;;;;;5038575;28;20045;-48
2022/07/11 19:48:08;;;;;;;2.97;1.30;;;27.50;61.40;;;;;;5033264;28;20120;-46
2022/07/11 19:50:42;;;;;;;2.47;1.10;;;27.50;61.60;;;;;;5032986;28;20056;-49
2022/07/11 19:53:08;;;;;;;4.00;1.23;;;27.40;61.40;;;;;;5033278;28;20037;-52
2022/07/11 19:58:21;;;;;;;3.22;1.10;;;27.20;61.80;;;;;;5032888;28;20111;-50
2022/07/11 20:00:47;;;;;;;3.08;1.02;;;27.10;61.90;;;;;;5035836;28;20156;-52
2022/07/11 20:03:17;;;;;;;4.82;1.33;;;27.10;62.10;;;;;;5033071;28;20129;-54
2022/07/11 20:05:47;;;;;;;2.30;0.95;;;27.00;62.20;;;;;;5035672;28;20485;-53
2022/07/11 20:08:17;;;;;;;2.22;1.13;;;26.90;62.30;;;;;;5034481;28;20049;-52
2022/07/11 20:10:44;;;;;;;2.45;1.25;;;26.80;62.50;;;;;;5032801;28;20099;-48
2022/07/11 20:13:18;;;;;;;3.58;1.08;;;26.80;62.40;;;;;;5038466;28;20045;-53
2022/07/11 20:15:44;;;;;;;3.63;1.23;;;26.70;62.40;;;;;;5033077;28;20038;-47
2022/07/11 20:18:11;;;;;;;4.15;1.30;;;26.70;62.40;;;;;;5033216;28;20041;-51
2022/07/11 20:20:38;;;;;;;5.10;0.90;;;26.60;62.50;;;;;;5036916;28;20049;-48
2022/07/11 20:23:05;;;;;;;3.65;1.23;;;26.50;62.40;;;;;;5037093;28;20050;-49
2022/07/11 20:25:32;;;;;;;2.58;1.20;;;26.50;62.50;;;;;;5036206;28;20053;-49
2022/07/11 20:28:01;;;;;;;3.33;1.10;;;26.40;62.40;;;;;;5036771;28;20064;-49
2022/07/11 20:30:28;;;;;;;2.30;1.00;;;26.40;62.70;;;;;;5036672;28;20046;-50
2022/07/11 20:32:55;;;;;;;3.40;1.20;;;26.30;62.70;;;;;;5036830;28;20041;-46
2022/07/11 20:35:22;;;;;;;2.28;1.15;;;26.30;63.00;;;;;;5040210;28;20527;-46
2022/07/11 20:37:48;;;;;;;2.55;1.17;;;26.20;63.00;;;;;;5036464;28;20095;-51
2022/07/11 20:40:16;;;;;;;3.08;1.23;;;26.20;63.00;;;;;;5035833;28;20052;-49
2022/07/11 20:42:45;;;;;;;4.72;1.50;;;26.10;63.20;;;;;;5036549;28;20041;-49
2022/07/11 20:45:13;;;;;;;2.30;1.10;;;26.10;63.50;;;;;;5036505;28;20041;-50
2022/07/11 20:47:39;;;;;;;2.53;1.35;;;26.00;63.40;;;;;;5036454;28;20050;-52
2022/07/11 20:50:06;;;;;;;3.38;1.20;;;25.90;63.80;;;;;;5036288;28;20503;-50
2022/07/11 20:52:33;;;;;;;4.65;1.65;;;25.90;63.60;;;;;;5041328;28;20099;-54
2022/07/11 20:55:00;;;;;;;1.88;1.20;;;25.80;63.80;;;;;;5036436;28;20452;-48
2022/07/11 20:57:27;;;;;;;8.13;1.33;;;25.80;64.30;;;;;;5036848;28;20094;-51
2022/07/11 20:59:53;;;;;;;4.70;1.25;;;25.70;64.40;;;;;;5038522;28;20053;-48
2022/07/11 21:02:20;;;;;;;4.55;1.65;;;25.60;64.40;;;;;;5036363;28;20439;-46
2022/07/11 21:04:47;;;;;;;3.00;1.60;;;25.60;64.60;;;;;;5037465;28;20411;-48
2022/07/11 21:07:14;;;;;;;4.28;1.50;;;25.60;64.70;;;;;;5036032;28;20111;-46
2022/07/11 21:09:40;;;;;;;4.40;1.50;;;25.40;64.80;;;;;;5040957;28;20459;-47
2022/07/11 21:12:07;;;;;;;2.83;1.40;;;25.40;65.00;;;;;;5036202;28;20046;-52
2022/07/11 21:14:34;;;;;;;3.10;1.33;;;25.30;65.10;;;;;;5036969;28;20612;-46
2022/07/11 21:17:00;;;;;;;5.32;1.02;;;25.20;65.10;;;;;;5039712;28;20045;-49
2022/07/11 21:19:28;;;;;;;5.68;1.20;;;25.20;65.00;;;;;;5035918;28;20033;-49
2022/07/11 21:21:54;;;;;;;3.47;1.30;;;25.20;65.20;;;;;;5034470;28;20500;-47
2022/07/11 21:24:21;;;;;;;3.33;1.40;;;25.20;65.10;;;;;;5035919;28;20033;-50
2022/07/11 21:26:48;;;;;;;2.17;1.17;;;25.10;65.10;;;;;;5035725;28;20489;-48
2022/07/11 21:29:14;;;;;;;5.47;1.30;;;25.10;65.70;;;;;;5035800;28;20041;-48
2022/07/11 21:31:41;;;;;;;3.08;1.30;;;25.00;65.20;;;;;;5035752;28;20472;-51
2022/07/11 21:34:08;;;;;;;2.60;1.30;;;24.90;65.20;;;;;;5035528;28;20037;-44
2022/07/11 21:36:35;;;;;;;4.70;1.20;;;24.90;65.00;;;;;;5035641;28;20163;-54
2022/07/11 21:39:02;;;;;;;4.68;1.38;;;24.80;65.30;;;;;;5037818;28;20056;-48
2022/07/11 21:41:29;;;;;;;2.08;1.20;;;24.70;65.40;;;;;;5035568;28;20045;-47
2022/07/11 21:43:56;;;;;;;4.15;1.40;;;24.70;65.30;;;;;;5039770;28;20041;-46
2022/07/11 21:46:22;;;;;;;4.00;1.25;;;24.60;65.00;;;;;;5035345;28;20107;-50
2022/07/11 21:48:49;;;;;;;2.83;1.20;;;24.50;65.10;;;;;;5034913;28;20153;-51
2022/07/11 21:51:16;;;;;;;3.60;1.17;;;24.50;65.30;;;;;;5035337;28;20473;-45
2022/07/11 21:53:43;;;;;;;3.75;1.20;;;24.40;65.20;;;;;;5035341;28;20392;-47
2022/07/11 21:56:09;;;;;;;3.88;1.27;;;24.40;65.40;;;;;;5035132;28;20041;-45
2022/07/11 21:58:36;;;;;;;3.20;1.30;;;24.30;65.20;;;;;;5035073;28;20041;-48
2022/07/11 22:01:03;;;;;;;5.70;1.45;;;24.30;65.50;;;;;;5028611;28;20408;-49
2022/07/11 22:03:30;;;;;;;2.65;1.48;;;24.20;65.40;;;;;;5036718;28;20464;-48
2022/07/11 22:05:56;;;;;;;3.40;1.40;;;24.20;65.80;;;;;;5034991;28;20091;-49
2022/07/11 22:08:23;;;;;;;3.38;1.40;;;24.10;65.70;;;;;;5035370;28;20041;-47
2022/07/11 22:10:50;;;;;;;5.32;1.40;;;24.10;66.50;;;;;;5035031;28;20057;-47
2022/07/11 22:13:17;;;;;;;5.47;1.70;;;24.00;66.20;;;;;;5034867;28;20119;-50
2022/07/11 22:15:43;;;;;;;3.63;1.65;;;24.00;66.30;;;;;;5036060;28;20037;-45
2022/07/11 22:18:10;;;;;;;3.33;1.85;;;23.90;66.50;;;;;;5035977;28;20435;-48
2022/07/11 22:20:37;;;;;;;3.50;1.35;;;23.90;66.40;;;;;;5034798;28;20045;-46
2022/07/11 22:23:04;;;;;;;3.75;1.83;;;23.90;66.50;;;;;;5036138;28;20056;-47
